createdAt,value
2022-12-08T00:00:05.629Z,9.27
2022-12-08T00:02:40.181Z,10.85
2022-12-08T00:05:29.050Z,11.05
2022-12-08T00:08:16.095Z,9.02
2022-12-08T00:10:49.942Z,8.05
2022-12-08T00:13:18.703Z,10.07
2022-12-08T00:15:47.278Z,10.68
2022-12-08T00:18:16.007Z,7.47
2022-12-08T00:20:44.834Z,6.97
2022-12-08T00:23:14.155Z,11.30
2022-12-08T00:25:42.737Z,9.65
2022-12-08T00:28:11.752Z,9.68
2022-12-08T00:30:43.778Z,9.15
2022-12-08T00:33:15.084Z,7.70
2022-12-08T00:35:43.794Z,6.30
2022-12-08T00:38:12.838Z,7.40
2022-12-08T00:40:48.498Z,10.65
2022-12-08T00:43:17.493Z,10.23
2022-12-08T00:45:46.128Z,9.50
2022-12-08T00:48:15.127Z,10.95
2022-12-08T00:50:44.077Z,10.50
2022-12-08T00:53:12.652Z,9.68
2022-12-08T00:55:42.008Z,7.97
2022-12-08T00:58:10.816Z,7.68
2022-12-08T01:00:42.674Z,10.32
2022-12-08T01:03:12.656Z,8.20
2022-12-08T01:05:41.420Z,10.30
2022-12-08T01:08:10.208Z,10.40
2022-12-08T01:10:40.475Z,10.35
2022-12-08T01:13:09.299Z,10.43
2022-12-08T01:15:38.596Z,10.38
2022-12-08T01:18:07.273Z,11.00
2022-12-08T01:20:35.920Z,9.45
2022-12-08T01:23:04.536Z,9.60
2022-12-08T01:25:36.195Z,7.82
2022-12-08T01:28:05.087Z,10.23
2022-12-08T01:30:34.037Z,9.32
2022-12-08T01:33:02.734Z,9.75
2022-12-08T01:35:31.566Z,9.82
2022-12-08T01:38:00.356Z,9.38
2022-12-08T01:40:29.074Z,9.98
2022-12-08T01:42:57.675Z,9.55
2022-12-08T01:45:29.733Z,9.27
2022-12-08T01:48:09.038Z,8.68
2022-12-08T01:50:40.906Z,9.50
2022-12-08T01:53:17.919Z,10.68
2022-12-08T01:56:00.506Z,8.38
2022-12-08T01:58:53.719Z,9.13
2022-12-08T02:01:22.954Z,6.60
2022-12-08T02:03:59.747Z,9.93
2022-12-08T02:06:39.328Z,8.93
2022-12-08T02:09:09.001Z,7.38
2022-12-08T02:11:37.854Z,8.45
2022-12-08T02:14:09.517Z,9.25
2022-12-08T02:17:03.059Z,11.23
2022-12-08T02:20:05.813Z,8.98
2022-12-08T02:22:49.498Z,8.20
2022-12-08T02:25:33.359Z,7.10
2022-12-08T02:31:11.584Z,7.00
2022-12-08T02:33:46.084Z,3.95
2022-12-08T02:36:22.982Z,6.38
2022-12-08T02:39:04.208Z,8.10
2022-12-08T02:41:45.969Z,6.80
2022-12-08T02:44:29.143Z,7.82
2022-12-08T02:47:13.394Z,8.05
2022-12-08T02:49:42.492Z,8.30
2022-12-08T02:52:16.392Z,8.55
2022-12-08T02:54:51.683Z,6.10
2022-12-08T02:57:47.878Z,9.48
2022-12-08T03:00:25.679Z,5.55
2022-12-08T03:03:24.901Z,5.43
2022-12-08T03:06:26.587Z,8.00
2022-12-08T03:09:04.492Z,4.45
2022-12-08T03:11:45.077Z,7.95
2022-12-08T03:14:17.393Z,6.22
2022-12-08T03:16:51.907Z,7.07
2022-12-08T03:19:27.824Z,9.75
2022-12-08T03:22:03.696Z,5.95
2022-12-08T03:24:36.732Z,4.95
2022-12-08T03:27:21.448Z,8.27
2022-12-08T03:29:52.872Z,8.95
2022-12-08T03:32:27.383Z,8.23
2022-12-08T03:34:58.753Z,7.10
2022-12-08T03:37:29.075Z,4.50
2022-12-08T03:39:58.485Z,7.43
2022-12-08T03:42:26.994Z,4.82
2022-12-08T03:44:55.546Z,4.85
2022-12-08T03:47:24.096Z,6.82
2022-12-08T03:49:52.616Z,5.95
2022-12-08T03:52:21.037Z,8.93
2022-12-08T03:54:49.847Z,6.85
2022-12-08T03:57:18.372Z,6.55
2022-12-08T03:59:46.974Z,6.00
2022-12-08T04:02:17.973Z,9.10
2022-12-08T04:04:46.584Z,8.65
2022-12-08T04:07:15.053Z,7.05
2022-12-08T04:09:43.604Z,7.30
2022-12-08T04:12:12.222Z,6.68
2022-12-08T04:14:40.738Z,6.82
2022-12-08T04:17:09.284Z,6.22
2022-12-08T04:19:37.794Z,6.32
2022-12-08T04:22:06.266Z,5.68
2022-12-08T04:24:34.802Z,7.15
2022-12-08T04:27:03.504Z,8.25
2022-12-08T04:29:32.216Z,8.98
2022-12-08T04:32:00.975Z,7.75
2022-12-08T04:34:29.544Z,8.57
2022-12-08T04:36:58.056Z,8.95
2022-12-08T04:39:26.737Z,6.80
2022-12-08T04:41:55.189Z,7.80
2022-12-08T04:44:23.795Z,6.85
2022-12-08T04:46:52.201Z,5.75
2022-12-08T04:49:20.915Z,6.15
2022-12-08T04:51:49.725Z,8.05
2022-12-08T04:54:18.257Z,7.43
2022-12-08T04:56:46.796Z,7.53
2022-12-08T04:59:15.440Z,6.13
2022-12-08T05:01:44.228Z,6.97
2022-12-08T05:04:15.443Z,9.48
2022-12-08T05:06:43.935Z,8.85
2022-12-08T05:09:12.934Z,9.38
2022-12-08T05:11:48.379Z,8.48
2022-12-08T05:14:19.725Z,6.43
2022-12-08T05:16:48.653Z,7.97
2022-12-08T05:19:20.448Z,7.40
2022-12-08T05:21:48.917Z,7.00
2022-12-08T05:24:17.460Z,7.80
2022-12-08T05:26:45.982Z,6.80
2022-12-08T05:29:14.507Z,8.55
2022-12-08T05:31:43.314Z,7.00
2022-12-08T05:34:12.098Z,8.88
2022-12-08T05:36:40.955Z,6.20
2022-12-08T05:39:13.118Z,6.65
2022-12-08T05:41:42.254Z,6.80
2022-12-08T05:44:10.936Z,8.40
2022-12-08T05:46:39.508Z,8.25
2022-12-08T05:49:08.196Z,6.88
2022-12-08T05:51:36.754Z,7.10
2022-12-08T05:54:05.404Z,7.10
2022-12-08T05:56:33.983Z,7.85
2022-12-08T05:59:02.643Z,6.70
2022-12-08T06:01:32.716Z,6.75
2022-12-08T06:04:03.955Z,7.28
2022-12-08T06:06:35.010Z,8.75
2022-12-08T06:09:05.968Z,6.20
2022-12-08T06:11:34.777Z,7.40
2022-12-08T06:14:04.077Z,8.00
2022-12-08T06:16:32.958Z,8.20
2022-12-08T06:19:01.392Z,7.32
2022-12-08T06:21:32.335Z,8.90
2022-12-08T06:24:01.046Z,7.28
2022-12-08T06:26:29.649Z,8.38
2022-12-08T06:28:58.330Z,7.10
2022-12-08T06:31:27.758Z,7.85
2022-12-08T06:33:56.696Z,8.57
2022-12-08T06:36:28.999Z,5.35
2022-12-08T06:38:57.946Z,6.55
2022-12-08T06:41:27.544Z,8.80
2022-12-08T06:43:59.434Z,6.63
2022-12-08T06:46:28.195Z,7.05
2022-12-08T06:48:56.698Z,5.82
2022-12-08T06:51:25.315Z,7.50
2022-12-08T06:53:53.919Z,8.40
2022-12-08T06:56:24.798Z,5.60
2022-12-08T06:58:53.396Z,7.18
2022-12-08T07:01:22.459Z,7.68
2022-12-08T07:03:51.152Z,7.07
2022-12-08T07:06:24.099Z,7.45
2022-12-08T07:08:53.248Z,6.38
2022-12-08T07:11:22.697Z,7.18
2022-12-08T07:13:51.716Z,5.40
2022-12-08T07:16:20.590Z,7.45
2022-12-08T07:18:49.341Z,6.93
2022-12-08T07:21:18.679Z,6.78
2022-12-08T07:23:56.029Z,7.18
2022-12-08T07:26:27.561Z,7.25
2022-12-08T07:28:56.275Z,7.43
2022-12-08T07:31:26.776Z,6.55
2022-12-08T07:33:57.045Z,7.65
2022-12-08T07:36:26.308Z,6.05
2022-12-08T07:38:55.254Z,7.80
2022-12-08T07:41:26.386Z,5.93
2022-12-08T07:43:55.257Z,6.10
2022-12-08T07:46:25.710Z,6.40
2022-12-08T07:48:55.893Z,5.88
2022-12-08T07:51:25.647Z,4.63
2022-12-08T07:53:55.355Z,6.57
2022-12-08T07:56:24.617Z,6.90
2022-12-08T07:58:53.521Z,6.28
2022-12-08T08:01:29.558Z,7.95
2022-12-08T08:04:05.001Z,4.28
2022-12-08T08:06:35.098Z,6.35
2022-12-08T08:09:03.657Z,5.97
2022-12-08T08:11:32.443Z,5.85
2022-12-08T08:14:00.973Z,6.43
2022-12-08T08:16:33.646Z,8.05
2022-12-08T08:19:06.739Z,6.80
2022-12-08T08:21:50.489Z,6.35
2022-12-08T08:24:21.159Z,6.53
2022-12-08T08:26:49.595Z,7.07
2022-12-08T08:29:19.046Z,5.75
2022-12-08T08:31:48.519Z,7.22
2022-12-08T08:34:18.238Z,4.68
2022-12-08T08:36:48.034Z,7.38
2022-12-08T08:39:17.478Z,6.90
2022-12-08T08:41:46.941Z,3.78
2022-12-08T08:44:16.075Z,4.68
2022-12-08T08:46:44.807Z,6.22
2022-12-08T08:49:15.759Z,4.82
2022-12-08T08:51:45.333Z,5.20
2022-12-08T08:54:14.887Z,7.05
2022-12-08T08:56:43.949Z,4.78
2022-12-08T08:59:13.426Z,6.10
2022-12-08T09:01:42.168Z,4.93
2022-12-08T09:04:11.980Z,6.25
2022-12-08T09:06:40.691Z,5.88
2022-12-08T09:09:10.154Z,5.63
2022-12-08T09:11:39.716Z,4.88
2022-12-08T09:14:08.234Z,6.75
2022-12-08T09:16:41.970Z,5.40
2022-12-08T09:19:11.893Z,5.00
2022-12-08T09:21:41.183Z,5.45
2022-12-08T09:24:16.176Z,4.55
2022-12-08T09:26:47.618Z,4.88
2022-12-08T09:29:16.018Z,4.57
2022-12-08T09:31:45.046Z,5.05
2022-12-08T09:34:14.120Z,7.28
2022-12-08T09:36:43.027Z,4.68
2022-12-08T09:39:11.785Z,5.13
2022-12-08T09:41:50.796Z,5.57
2022-12-08T09:44:25.758Z,5.30
2022-12-08T09:46:56.268Z,5.55
2022-12-08T09:49:37.821Z,4.90
2022-12-08T09:52:14.011Z,5.80
2022-12-08T09:54:43.139Z,4.15
2022-12-08T09:57:16.656Z,4.63
2022-12-08T09:59:52.315Z,3.05
2022-12-08T10:02:30.796Z,5.75
2022-12-08T10:05:00.660Z,2.60
2022-12-08T10:08:04.464Z,4.82
2022-12-08T10:10:55.097Z,5.75
2022-12-08T10:13:29.055Z,4.65
2022-12-08T10:16:29.848Z,5.10
2022-12-08T10:19:23.761Z,4.43
2022-12-08T10:22:00.420Z,3.97
2022-12-08T10:24:51.306Z,5.93
2022-12-08T10:27:23.195Z,5.45
2022-12-08T10:29:51.686Z,4.20
2022-12-08T10:32:24.240Z,4.72
2022-12-08T10:35:03.283Z,3.88
2022-12-08T10:37:32.117Z,5.32
2022-12-08T10:40:04.030Z,3.38
2022-12-08T10:42:44.058Z,5.45
2022-12-08T10:45:27.354Z,5.40
2022-12-08T10:48:01.033Z,3.72
2022-12-08T10:50:36.790Z,5.03
2022-12-08T10:53:08.375Z,5.32
2022-12-08T10:55:49.205Z,4.57
2022-12-08T10:58:41.436Z,4.85
2022-12-08T11:01:19.524Z,4.20
2022-12-08T11:03:55.081Z,4.00
2022-12-08T11:06:30.195Z,3.85
2022-12-08T11:09:02.892Z,4.05
2022-12-08T11:12:07.983Z,5.40
2022-12-08T11:14:52.327Z,5.65
2022-12-08T11:17:23.548Z,5.53
2022-12-08T11:20:05.962Z,5.35
2022-12-08T11:22:43.188Z,3.28
2022-12-08T11:25:23.515Z,2.55
2022-12-08T11:28:02.418Z,3.50
2022-12-08T11:30:37.124Z,5.05
2022-12-08T11:33:29.020Z,3.83
2022-12-08T11:36:08.815Z,4.70
2022-12-08T11:38:43.551Z,4.07
2022-12-08T11:41:18.104Z,3.15
2022-12-08T11:44:02.867Z,5.32
2022-12-08T11:46:57.615Z,4.55
2022-12-08T11:49:57.461Z,4.55
2022-12-08T11:52:33.592Z,2.97
2022-12-08T11:55:39.007Z,4.20
2022-12-08T11:58:24.855Z,7.30
2022-12-08T12:00:53.680Z,3.65
2022-12-08T12:03:39.538Z,3.75
2022-12-08T12:06:30.821Z,5.28
2022-12-08T12:09:39.046Z,4.00
2022-12-08T12:15:25.434Z,4.43
2022-12-08T12:17:58.317Z,2.97
2022-12-08T12:20:48.636Z,2.77
2022-12-08T12:23:49.462Z,5.35
2022-12-08T12:26:32.284Z,3.75
2022-12-08T12:29:15.784Z,4.32
2022-12-08T12:31:51.272Z,5.28
2022-12-08T12:34:26.660Z,5.88
2022-12-08T12:37:00.003Z,4.78
2022-12-08T12:39:31.624Z,4.85
2022-12-08T12:42:02.962Z,4.90
2022-12-08T12:44:33.729Z,6.03
2022-12-08T12:47:06.301Z,4.90
2022-12-08T12:49:45.366Z,3.42
2022-12-08T12:52:21.268Z,3.58
2022-12-08T12:54:54.629Z,4.75
2022-12-08T12:57:26.576Z,4.72
2022-12-08T13:00:05.169Z,4.07
2022-12-08T13:02:55.454Z,3.83
2022-12-08T13:05:46.777Z,2.90
2022-12-08T13:08:27.085Z,4.05
2022-12-08T13:11:11.934Z,3.65
2022-12-08T13:14:03.237Z,3.35
2022-12-08T13:16:41.449Z,3.33
2022-12-08T13:19:17.625Z,4.05
2022-12-08T13:21:46.295Z,4.53
2022-12-08T13:24:35.943Z,4.40
2022-12-08T13:27:04.826Z,4.70
2022-12-08T13:29:38.818Z,4.80
2022-12-08T13:34:55.780Z,3.80
2022-12-08T13:37:54.585Z,3.30
2022-12-08T13:40:41.714Z,4.10
2022-12-08T13:43:44.662Z,3.60
2022-12-08T13:51:15.941Z,3.15
2022-12-08T13:58:45.721Z,3.03
2022-12-08T14:01:31.709Z,3.90
2022-12-08T14:04:37.632Z,3.83
2022-12-08T14:07:01.741Z,4.15
2022-12-08T14:12:08.065Z,4.07
2022-12-08T14:15:05.296Z,5.38
2022-12-08T14:17:35.049Z,5.15
2022-12-08T14:20:30.927Z,4.22
2022-12-08T14:23:00.531Z,3.38
2022-12-08T14:25:30.581Z,3.75
2022-12-08T14:28:05.506Z,4.20
2022-12-08T14:30:38.096Z,3.78
2022-12-08T14:33:13.872Z,5.20
2022-12-08T14:35:42.617Z,5.35
2022-12-08T14:38:17.314Z,4.78
2022-12-08T14:40:47.259Z,6.15
2022-12-08T14:43:21.696Z,5.82
2022-12-08T14:45:52.416Z,5.22
2022-12-08T14:48:21.280Z,5.05
2022-12-08T14:51:02.802Z,4.90
2022-12-08T14:53:40.371Z,4.28
2022-12-08T14:56:16.983Z,4.78
2022-12-08T14:58:46.600Z,4.93
2022-12-08T15:01:19.406Z,5.20
2022-12-08T15:03:51.478Z,2.78
2022-12-08T15:06:24.512Z,6.00
2022-12-08T15:08:59.301Z,3.40
2022-12-08T15:11:33.495Z,3.78
2022-12-08T15:14:03.222Z,3.55
2022-12-08T15:16:40.336Z,3.97
2022-12-08T15:19:28.622Z,3.00
2022-12-08T15:22:00.762Z,4.88
2022-12-08T15:24:32.224Z,3.35
2022-12-08T15:27:01.112Z,5.00
2022-12-08T15:29:31.493Z,5.10
2022-12-08T15:32:02.037Z,2.63
2022-12-08T15:34:32.353Z,3.28
2022-12-08T15:37:00.813Z,4.75
2022-12-08T15:39:36.631Z,4.80
2022-12-08T15:42:12.207Z,6.00
2022-12-08T15:44:41.712Z,3.40
2022-12-08T15:47:19.892Z,3.30
2022-12-08T15:49:51.546Z,4.68
2022-12-08T15:52:22.633Z,3.28
2022-12-08T15:54:51.576Z,3.50
2022-12-08T15:58:04.588Z,3.35
2022-12-08T16:00:51.293Z,3.00
2022-12-08T16:04:19.832Z,5.10
2022-12-08T16:09:38.920Z,2.85
2022-12-08T16:13:26.949Z,4.60
2022-12-08T16:18:27.564Z,4.60
2022-12-08T16:23:45.767Z,4.60
2022-12-08T16:26:44.151Z,5.07
2022-12-08T16:29:07.129Z,6.15
2022-12-08T16:31:35.948Z,3.58
2022-12-08T16:34:08.124Z,3.38
2022-12-08T16:36:37.623Z,3.70
2022-12-08T16:39:06.442Z,3.83
2022-12-08T16:41:54.256Z,3.78
2022-12-08T16:44:23.673Z,3.55
2022-12-08T16:46:52.150Z,2.63
2022-12-08T16:49:20.862Z,3.60
2022-12-08T16:51:49.591Z,2.83
2022-12-08T16:54:18.173Z,5.05
2022-12-08T16:56:46.807Z,4.93
2022-12-08T16:59:15.330Z,3.80
2022-12-08T17:01:44.180Z,4.75
2022-12-08T17:07:01.888Z,4.40
2022-12-08T17:09:33.015Z,4.05
2022-12-08T17:12:04.328Z,4.53
2022-12-08T17:14:37.023Z,2.58
2022-12-08T17:17:06.998Z,4.10
2022-12-08T17:19:35.991Z,3.20
2022-12-08T17:22:05.217Z,3.33
2022-12-08T17:24:33.978Z,3.75
2022-12-08T17:27:07.224Z,2.97
2022-12-08T17:29:36.280Z,3.33
2022-12-08T17:32:05.329Z,3.40
2022-12-08T17:34:34.628Z,3.72
2022-12-08T17:37:03.184Z,4.10
2022-12-08T17:39:31.860Z,3.58
2022-12-08T17:42:00.826Z,3.42
2022-12-08T17:44:29.520Z,5.15
2022-12-08T17:46:58.169Z,3.63
2022-12-08T17:49:30.350Z,4.40
2022-12-08T17:52:00.812Z,3.58
2022-12-08T17:54:29.882Z,2.47
2022-12-08T17:56:59.278Z,4.32
2022-12-08T17:59:29.337Z,3.30
2022-12-08T18:01:58.912Z,3.63
2022-12-08T18:04:29.016Z,4.30
2022-12-08T18:07:01.070Z,5.32
2022-12-08T18:09:31.833Z,2.80
2022-12-08T18:12:00.945Z,1.67
2022-12-08T18:14:29.456Z,3.20
2022-12-08T18:16:58.209Z,4.68
2022-12-08T18:19:27.091Z,4.32
2022-12-08T18:21:55.723Z,3.10
2022-12-08T18:24:24.880Z,5.20
2022-12-08T18:26:53.817Z,3.38
2022-12-08T18:29:23.572Z,2.95
2022-12-08T18:31:52.731Z,4.18
2022-12-08T18:34:22.090Z,3.35
2022-12-08T18:36:50.778Z,3.03
2022-12-08T18:39:28.337Z,3.55
2022-12-08T18:41:58.756Z,5.60
2022-12-08T18:44:27.201Z,4.97
2022-12-08T18:46:55.711Z,3.55
2022-12-08T18:49:24.411Z,4.32
2022-12-08T18:51:53.759Z,3.85
2022-12-08T18:54:37.206Z,3.78
2022-12-08T18:57:12.236Z,2.72
2022-12-08T18:59:40.812Z,3.53
2022-12-08T19:02:11.011Z,5.03
2022-12-08T19:04:41.453Z,4.97
2022-12-08T19:07:12.106Z,4.85
2022-12-08T19:09:41.174Z,4.30
2022-12-08T19:12:09.714Z,3.15
2022-12-08T19:14:38.728Z,3.45
2022-12-08T19:17:07.814Z,4.15
2022-12-08T19:19:36.954Z,5.38
2022-12-08T19:22:06.231Z,3.63
2022-12-08T19:24:37.343Z,5.00
2022-12-08T19:27:06.440Z,4.18
2022-12-08T19:29:35.348Z,2.58
2022-12-08T19:32:05.758Z,4.70
2022-12-08T19:34:34.822Z,4.90
2022-12-08T19:37:03.261Z,2.42
2022-12-08T19:39:50.175Z,3.45
2022-12-08T19:42:39.712Z,2.85
2022-12-08T19:45:12.837Z,3.72
2022-12-08T19:47:44.224Z,2.78
2022-12-08T19:50:33.946Z,4.90
2022-12-08T19:53:03.775Z,3.63
2022-12-08T19:55:32.978Z,3.85
2022-12-08T19:58:02.606Z,6.20
2022-12-08T20:00:32.743Z,2.72
2022-12-08T20:03:02.903Z,4.65
2022-12-08T20:05:34.268Z,4.28
2022-12-08T20:08:03.045Z,2.90
2022-12-08T20:10:35.433Z,5.28
2022-12-08T20:13:22.745Z,5.07
2022-12-08T20:15:51.417Z,4.40
2022-12-08T20:18:20.185Z,4.68
2022-12-08T20:20:49.312Z,2.88
2022-12-08T20:23:18.290Z,4.97
2022-12-08T20:25:48.539Z,3.60
2022-12-08T20:28:17.163Z,3.42
2022-12-08T20:30:47.753Z,4.18
2022-12-08T20:33:18.617Z,3.28
2022-12-08T20:35:47.908Z,2.97
2022-12-08T20:38:16.893Z,4.45
2022-12-08T20:40:47.809Z,4.35
2022-12-08T20:43:16.508Z,4.07
2022-12-08T20:45:45.233Z,2.38
2022-12-08T20:48:13.589Z,5.22
2022-12-08T20:50:42.289Z,3.80
2022-12-08T20:53:10.814Z,4.97
2022-12-08T20:55:42.434Z,4.28
2022-12-08T20:58:11.180Z,3.42
2022-12-08T21:00:39.933Z,4.07
2022-12-08T21:03:09.289Z,2.67
2022-12-08T21:05:39.503Z,4.57
2022-12-08T21:08:08.408Z,4.93
2022-12-08T21:10:42.220Z,4.90
2022-12-08T21:13:12.658Z,2.45
2022-12-08T21:15:47.192Z,4.13
2022-12-08T21:18:17.380Z,2.28
2022-12-08T21:20:48.208Z,3.13
2022-12-08T21:23:17.719Z,4.10
2022-12-08T21:25:47.963Z,3.17
2022-12-08T21:28:16.719Z,5.47
2022-12-08T21:30:45.298Z,5.90
2022-12-08T21:33:13.985Z,4.03
2022-12-08T21:35:42.800Z,2.97
2022-12-08T21:38:11.542Z,3.17
2022-12-08T21:40:40.298Z,4.20
2022-12-08T21:43:09.027Z,3.15
2022-12-08T21:45:37.451Z,4.13
2022-12-08T21:48:11.295Z,3.00
2022-12-08T21:50:40.572Z,4.50
2022-12-08T21:53:09.531Z,3.40
2022-12-08T21:55:37.953Z,3.80
2022-12-08T21:58:06.574Z,3.63
2022-12-08T22:00:35.258Z,2.33
2022-12-08T22:03:07.216Z,3.90
2022-12-08T22:05:36.911Z,3.47
2022-12-08T22:08:05.772Z,4.95
2022-12-08T22:10:34.890Z,2.17
2022-12-08T22:13:03.667Z,3.08
2022-12-08T22:15:33.492Z,3.50
2022-12-08T22:18:02.148Z,6.18
2022-12-08T22:20:30.832Z,2.40
2022-12-08T22:22:59.360Z,3.30
2022-12-08T22:25:28.058Z,4.43
2022-12-08T22:27:56.386Z,3.20
2022-12-08T22:30:25.109Z,4.22
2022-12-08T22:32:53.867Z,4.10
2022-12-08T22:35:22.711Z,4.82
2022-12-08T22:37:51.700Z,4.10
2022-12-08T22:40:22.576Z,4.97
2022-12-08T22:42:51.238Z,3.45
2022-12-08T22:45:22.347Z,3.30
2022-12-08T22:47:51.136Z,3.88
2022-12-08T22:50:19.674Z,6.45
2022-12-08T22:52:48.383Z,5.93
2022-12-08T22:55:17.144Z,3.45
2022-12-08T22:57:45.557Z,5.05
2022-12-08T23:00:14.314Z,2.67
2022-12-08T23:02:43.127Z,2.60
2022-12-08T23:05:12.906Z,4.32
2022-12-08T23:07:41.859Z,4.20
2022-12-08T23:10:11.911Z,3.22
2022-12-08T23:12:40.705Z,3.38
2022-12-08T23:15:09.523Z,4.35
2022-12-08T23:17:38.483Z,3.38
2022-12-08T23:20:08.181Z,3.22
2022-12-08T23:22:37.031Z,2.90
2022-12-08T23:25:06.375Z,4.55
2022-12-08T23:27:35.175Z,5.32
2022-12-08T23:30:05.658Z,5.78
2022-12-08T23:32:34.716Z,4.32
2022-12-08T23:35:03.504Z,4.68
2022-12-08T23:37:32.195Z,5.10
2022-12-08T23:40:00.923Z,4.78
2022-12-08T23:42:32.738Z,3.17
2022-12-08T23:45:01.389Z,4.70
2022-12-08T23:47:30.275Z,3.97
2022-12-08T23:49:59.021Z,3.83
2022-12-08T23:52:27.621Z,3.70
2022-12-08T23:54:56.592Z,3.60
2022-12-08T23:57:25.448Z,3.80
2022-12-08T23:59:54.043Z,4.63
